Amesville, Ohio
Current Conditions -  °F | °C
As of 10:50 PM on Tuesday 27 Jan 2015 (Local Time) from KUNI Reporting Station
Clear Clear  
Wind Chill: 17°   Ceiling: Unl
Heat Index: 17°   Visibility: 10mi
Dew Point: 11°   Wind: 0mph
Humidity: 75%   Direction: NA
Pressure: 30.21"   Gusts: NA
Location:  39.4°N, 81.96°W
Report Text: KUNI 280350Z AUTO 00000KT 10SM CLR M08/M12 A3021 RMK AO2 T10811118 410431121
Loading
Personal Weather Stations






























Interactive Weather Map New forecast layout! Learn more

10-Day Weather Forecast

Advertisements
Track Severe Weather on mobile